Time;durP1;ratioP1;P1;durP2;ratioP2;P2;SDS_P1;SDS_P2;PMS_P1;PMS_P2;Temp;Humidity;BMP_temperature;BMP_pressure;BME280_temperature;BME280_humidity;BME280_pressure;Samples;Min_cycle;Max_cycle;Signal;HPM_P1;HPM_P2
2022/08/24 00:00:33;;;;;;;;;;;;;;;24.05;79.82;96654.84;531165;267;67461;-68
2022/08/24 00:03:01;;;;;;;;;;;;;;;24.04;79.72;96664.78;531186;264;65017;-68
2022/08/24 00:05:29;;;;;;;;;;;;;;;24.03;79.66;96687.33;531113;267;69223;-68
2022/08/24 00:07:56;;;;;;;;;;;;;;;24.04;79.61;96728.41;531186;264;69423;-69
2022/08/24 00:10:25;;;;;;;;;;;;;;;24.04;79.55;96737.27;531191;264;62868;-68
2022/08/24 00:12:52;;;;;;;;;;;;;;;24.04;79.67;96733.78;531255;266;68979;-68
2022/08/24 00:15:20;;;;;;;;;;;;;;;24.03;79.79;96738.33;533320;265;66529;-68
2022/08/24 00:17:48;;;;;;;;;;;;;;;24.04;79.62;96741.84;533945;265;62970;-68
2022/08/24 00:20:15;;;;;;;;;;;;;;;24.03;79.56;96759.80;534171;265;67390;-68
2022/08/24 00:22:43;;;;;;;;;;;;;;;24.03;79.56;96769.76;534105;265;67200;-68
2022/08/24 00:25:11;;;;;;;;;;;;;;;24.03;79.55;96770.55;533950;265;64065;-68
2022/08/24 00:27:39;;;;;;;;;;;;;;;24.03;79.66;96773.23;533885;265;68643;-68
2022/08/24 00:30:08;;;;;;;;;;;;;;;24.03;79.79;96775.13;534052;265;68743;-68
2022/08/24 00:32:36;;;;;;;;;;;;;;;24.03;79.87;96785.86;534116;265;63914;-69
2022/08/24 00:35:06;;;;;;;;;;;;;;;24.02;79.95;96782.39;534077;265;68435;-68
2022/08/24 00:37:34;;;;;;;;;;;;;;;24.02;80.02;96786.97;534187;265;66333;-68
2022/08/24 00:40:03;;;;;;;;;;;;;;;24.03;80.01;96788.55;534204;265;65734;-68
2022/08/24 00:42:30;;;;;;;;;;;;;;;24.02;79.85;96795.02;534020;265;68628;-68
2022/08/24 00:44:58;;;;;;;;;;;;;;;24.02;79.95;96809.23;534038;265;65991;-68
2022/08/24 00:47:32;;;;;;;;;;;;;;;24.03;79.99;96812.70;534229;264;65925;-68
2022/08/24 00:50:00;;;;;;;;;;;;;;;24.02;80.06;96816.49;534136;265;66252;-68
2022/08/24 00:52:30;;;;;;;;;;;;;;;24.02;80.20;96816.49;534126;265;69228;-68
2022/08/24 00:54:59;;;;;;;;;;;;;;;24.01;80.12;96815.70;533768;265;62817;-68
2022/08/24 00:57:28;;;;;;;;;;;;;;;24.00;80.08;96824.83;534143;265;66240;-68
2022/08/24 00:59:57;;;;;;;;;;;;;;;24.01;80.11;96837.17;534031;265;68421;-68
2022/08/24 01:02:26;;;;;;;;;;;;;;;24.01;80.22;96849.77;534143;265;65026;-68
2022/08/24 01:04:55;;;;;;;;;;;;;;;24.01;80.13;96864.02;533826;265;66176;-68
2022/08/24 01:07:24;;;;;;;;;;;;;;;24.00;80.12;96867.77;534157;265;68994;-68
2022/08/24 01:09:52;;;;;;;;;;;;;;;24.01;80.23;96868.56;534175;265;65071;-68
2022/08/24 01:12:21;;;;;;;;;;;;;;;24.01;80.39;96868.56;534027;265;66061;-68
2022/08/24 01:14:48;;;;;;;;;;;;;;;23.99;80.12;96860.83;532712;265;68170;-68
2022/08/24 01:20:05;;;;;;;;;;;;;;;24.01;80.21;96880.12;527005;267;70289;-68
2022/08/24 01:22:34;;;;;;;;;;;;;;;24.00;80.24;96881.20;531150;267;68728;-72
2022/08/24 01:25:02;;;;;;;;;;;;;;;23.99;80.39;96882.30;531040;264;65092;-72
2022/08/24 01:27:30;;;;;;;;;;;;;;;24.00;80.30;96880.41;531187;264;68692;-72
2022/08/24 01:29:59;;;;;;;;;;;;;;;24.00;80.25;96894.62;531134;267;68359;-72
2022/08/24 01:32:26;;;;;;;;;;;;;;;23.99;80.27;96893.03;531091;267;62524;-72
2022/08/24 01:34:55;;;;;;;;;;;;;;;24.00;80.29;96891.94;531216;266;68495;-72
2022/08/24 01:37:23;;;;;;;;;;;;;;;24.00;80.37;96888.45;531108;267;66544;-72
2022/08/24 01:39:52;;;;;;;;;;;;;;;23.99;80.42;96892.24;531153;266;64982;-72
2022/08/24 01:42:19;;;;;;;;;;;;;;;23.99;80.33;96894.92;531111;266;68639;-72
2022/08/24 01:44:47;;;;;;;;;;;;;;;23.99;80.38;96894.92;531152;266;69007;-72
2022/08/24 01:47:16;;;;;;;;;;;;;;;23.98;80.40;96896.81;531199;266;65018;-72
2022/08/24 01:49:45;;;;;;;;;;;;;;;23.99;80.41;96898.41;531493;264;69006;-72
2022/08/24 01:52:14;;;;;;;;;;;;;;;23.99;80.39;96897.61;531617;264;68358;-72
2022/08/24 01:54:42;;;;;;;;;;;;;;;23.99;80.56;96902.98;531101;266;62456;-72
2022/08/24 01:57:09;;;;;;;;;;;;;;;23.99;80.68;96913.72;531173;266;68496;-72
2022/08/24 01:59:37;;;;;;;;;;;;;;;23.98;80.62;96902.19;531258;264;68655;-72
2022/08/24 02:02:07;;;;;;;;;;;;;;;23.98;80.59;96899.50;531233;264;65687;-73
2022/08/24 02:04:35;;;;;;;;;;;;;;;23.98;80.62;96893.31;531167;264;68529;-72
2022/08/24 02:07:03;;;;;;;;;;;;;;;23.98;80.73;96902.19;531053;267;67020;-68
2022/08/24 02:09:31;;;;;;;;;;;;;;;23.99;80.77;96902.98;531417;264;65620;-68
2022/08/24 02:11:59;;;;;;;;;;;;;;;23.98;80.80;96904.05;531185;266;69125;-68
2022/08/24 02:14:27;;;;;;;;;;;;;;;23.98;80.79;96904.05;531128;266;66286;-68
2022/08/24 02:16:56;;;;;;;;;;;;;;;23.98;80.79;96904.88;531194;264;65109;-68
2022/08/24 02:19:26;;;;;;;;;;;;;;;23.97;80.80;96905.94;531451;264;69112;-68
2022/08/24 02:21:53;;;;;;;;;;;;;;;23.98;80.70;96910.23;531189;264;68345;-68
2022/08/24 02:24:21;;;;;;;;;;;;;;;23.97;80.75;96905.94;531449;264;64766;-68
2022/08/24 02:26:49;;;;;;;;;;;;;;;23.97;80.71;96903.26;531295;264;68754;-68
2022/08/24 02:29:17;;;;;;;;;;;;;;;23.98;80.72;96898.68;531221;264;66394;-69
2022/08/24 02:31:45;;;;;;;;;;;;;;;23.97;80.81;96895.20;531188;266;64931;-68
2022/08/24 02:34:12;;;;;;;;;;;;;;;23.97;80.72;96894.41;531215;266;66574;-68
2022/08/24 02:36:40;;;;;;;;;;;;;;;23.97;80.73;96894.41;531169;266;68415;-68
2022/08/24 02:39:08;;;;;;;;;;;;;;;23.97;80.79;96895.20;531183;267;65113;-72
2022/08/24 02:41:37;;;;;;;;;;;;;;;23.97;80.75;96895.20;531145;266;69098;-72
2022/08/24 02:44:05;;;;;;;;;;;;;;;23.97;80.79;96889.84;531197;266;66351;-72
2022/08/24 02:46:33;;;;;;;;;;;;;;;23.96;80.89;96888.25;531144;266;65024;-72
2022/08/24 02:49:01;;;;;;;;;;;;;;;23.96;80.85;96893.63;531175;267;68990;-72
2022/08/24 02:51:30;;;;;;;;;;;;;;;23.97;80.95;96899.78;531198;264;65945;-71
2022/08/24 02:53:58;;;;;;;;;;;;;;;23.96;80.92;96896.30;531106;266;62883;-71
2022/08/24 02:56:28;;;;;;;;;;;;;;;23.96;80.79;96893.63;531104;267;68768;-72
2022/08/24 02:58:57;;;;;;;;;;;;;;;23.96;80.80;96896.30;531153;267;68377;-72
2022/08/24 03:01:25;;;;;;;;;;;;;;;23.96;80.82;96890.94;531222;264;65792;-72
2022/08/24 03:03:53;;;;;;;;;;;;;;;23.97;80.73;96899.78;531450;264;68864;-71
2022/08/24 03:06:22;;;;;;;;;;;;;;;23.95;80.74;96892.01;531198;264;68681;-72
2022/08/24 03:08:50;;;;;;;;;;;;;;;23.96;80.81;96887.47;531480;264;62870;-72
2022/08/24 03:11:18;;;;;;;;;;;;;;;23.96;80.81;96895.52;531620;264;66380;-72
2022/08/24 03:13:46;;;;;;;;;;;;;;;23.96;80.73;96896.30;531165;264;65738;-71
2022/08/24 03:16:15;;;;;;;;;;;;;;;23.95;80.76;96889.33;531172;264;64987;-71
2022/08/24 03:18:42;;;;;;;;;;;;;;;23.95;80.82;96892.01;531274;264;66087;-72
2022/08/24 03:21:10;;;;;;;;;;;;;;;23.95;80.87;96892.01;531367;264;68294;-72
2022/08/24 03:23:39;;;;;;;;;;;;;;;23.96;80.96;96895.52;531520;264;47144;-72
2022/08/24 03:26:07;;;;;;;;;;;;;;;23.95;81.10;96900.06;531171;267;68292;-71
2022/08/24 03:28:34;;;;;;;;;;;;;;;23.95;81.08;96901.95;531253;266;68037;-71
2022/08/24 03:31:02;;;;;;;;;;;;;;;23.95;81.10;96894.70;531263;264;62778;-71
2022/08/24 03:33:29;;;;;;;;;;;;;;;23.95;81.16;96897.38;531297;266;68384;-71
2022/08/24 03:35:58;;;;;;;;;;;;;;;23.94;81.04;96893.11;531310;264;68769;-72
2022/08/24 03:38:26;;;;;;;;;;;;;;;23.95;81.08;96891.22;531249;264;65732;-71
2022/08/24 03:40:53;;;;;;;;;;;;;;;23.95;81.00;96885.84;531126;267;68506;-71
2022/08/24 03:46:07;;;;;;;;;;;;;;;23.93;80.94;96878.90;531179;266;64997;-71
2022/08/24 03:48:36;;;;;;;;;;;;;;;23.94;80.92;96885.06;531260;266;68975;-71
2022/08/24 03:51:04;;;;;;;;;;;;;;;23.94;80.94;96887.74;531097;267;68834;-72
2022/08/24 03:53:31;;;;;;;;;;;;;;;23.94;80.87;96893.11;531298;264;63088;-71
2022/08/24 03:56:00;;;;;;;;;;;;;;;23.94;80.98;96890.43;531247;266;68929;-71
2022/08/24 03:58:28;;;;;;;;;;;;;;;23.94;81.08;96887.74;531190;264;67032;-71
2022/08/24 04:00:57;;;;;;;;;;;;;;;23.93;81.05;96884.27;531275;264;65665;-71
2022/08/24 04:03:24;;;;;;;;;;;;;;;23.93;81.16;96881.58;531172;267;68537;-71
2022/08/24 04:05:52;;;;;;;;;;;;;;;23.94;81.28;96890.43;531274;266;68412;-71
2022/08/24 04:08:19;;;;;;;;;;;;;;;23.93;81.16;96884.27;531161;267;62870;-72
2022/08/24 04:10:47;;;;;;;;;;;;;;;23.94;81.06;96893.11;531203;266;68840;-72
2022/08/24 04:13:16;;;;;;;;;;;;;;;23.93;81.15;96886.95;531183;264;68616;-71
2022/08/24 04:15:45;;;;;;;;;;;;;;;23.93;81.29;96888.84;531211;264;64964;-72
2022/08/24 04:18:13;;;;;;;;;;;;;;;23.93;81.29;96878.11;531254;264;65853;-72
2022/08/24 04:20:43;;;;;;;;;;;;;;;23.92;81.35;96879.97;531233;264;52205;-72
2022/08/24 04:23:14;;;;;;;;;;;;;;;23.93;81.27;96883.48;531406;264;43694;-71
2022/08/24 04:25:43;;;;;;;;;;;;;;;23.93;81.27;96883.48;531199;266;68653;-72
2022/08/24 04:28:12;;;;;;;;;;;;;;;23.92;81.31;96879.97;531137;267;68532;-72
2022/08/24 04:30:40;;;;;;;;;;;;;;;23.93;81.43;96886.95;531210;266;62881;-68
2022/08/24 04:33:10;;;;;;;;;;;;;;;23.92;81.27;96890.70;531477;264;66238;-68
2022/08/24 04:35:41;;;;;;;;;;;;;;;23.92;81.30;96881.86;531073;266;69469;-68
2022/08/24 04:38:08;;;;;;;;;;;;;;;23.92;81.10;96888.02;531180;266;62910;-68
2022/08/24 04:40:40;;;;;;;;;;;;;;;23.91;81.12;96891.81;531401;264;69504;-68
2022/08/24 04:43:08;;;;;;;;;;;;;;;23.92;81.20;96896.08;531371;264;69620;-68
2022/08/24 04:45:38;;;;;;;;;;;;;;;23.92;81.28;96900.65;531177;266;62533;-68
2022/08/24 04:48:07;;;;;;;;;;;;;;;23.92;81.28;96903.33;531437;264;66118;-68
2022/08/24 04:50:36;;;;;;;;;;;;;;;23.91;81.19;96902.55;531269;264;69483;-69
2022/08/24 04:53:06;;;;;;;;;;;;;;;23.92;81.22;96903.33;527036;267;65203;-68
2022/08/24 04:55:35;;;;;;;;;;;;;;;23.91;81.04;96891.02;531266;264;68735;-68
2022/08/24 04:58:03;;;;;;;;;;;;;;;23.91;81.05;96891.81;530928;264;68914;-68
2022/08/24 05:00:31;;;;;;;;;;;;;;;23.91;81.11;96899.06;531098;267;62810;-68
2022/08/24 05:02:57;;;;;;;;;;;;;;;;;;531116;266;69052;-68
2022/08/24 05:05:24;;;;;;;;;;;;;;;;;;530703;267;68552;-68
2022/08/24 05:07:51;;;;;;;;;;;;;;;23.91;80.96;96891.81;531062;267;64679;-68
2022/08/24 05:10:19;;;;;;;;;;;;;;;23.91;81.03;96886.44;526897;267;66660;-68
2022/08/24 05:12:47;;;;;;;;;;;;;;;23.91;81.12;96896.38;531401;264;68634;-68
2022/08/24 05:15:16;;;;;;;;;;;;;;;23.91;81.11;96899.06;531008;266;42506;-69
2022/08/24 05:17:44;;;;;;;;;;;;;;;23.92;80.98;96897.97;531181;266;68776;-68
2022/08/24 05:20:12;;;;;;;;;;;;;;;23.92;81.08;96903.33;530922;267;66836;-68
2022/08/24 05:22:40;;;;;;;;;;;;;;;23.91;81.00;96899.06;531448;264;65329;-68
2022/08/24 05:25:06;;;;;;;;;;;;;;;;;;531413;264;67516;-68
2022/08/24 05:27:34;;;;;;;;;;;;;;;23.91;80.98;96882.97;531161;267;68785;-68
2022/08/24 05:30:02;;;;;;;;;;;;;;;23.91;81.08;96889.13;531418;264;63835;-68
2022/08/24 05:32:29;;;;;;;;;;;;;;;23.91;81.13;96875.70;531328;264;68793;-68
2022/08/24 05:34:59;;;;;;;;;;;;;;;23.91;81.21;96872.23;531375;264;66521;-68
2022/08/24 05:37:27;;;;;;;;;;;;;;;23.91;80.94;96872.23;531120;266;66313;-68
2022/08/24 05:40:07;;;;;;;;;;;;;;;23.91;81.10;96877.59;526727;267;50177;-69
2022/08/24 05:42:36;;;;;;;;;;;;;;;23.91;81.31;96872.23;531148;266;68342;-69
2022/08/24 05:45:02;;;;;;;;;;;;;;;;;;531197;266;62931;-66
2022/08/24 05:47:30;;;;;;;;;;;;;;;23.91;81.52;96874.91;531172;264;67695;-66
2022/08/24 05:49:59;;;;;;;;;;;;;;;23.90;81.57;96873.33;531107;264;50812;-68
2022/08/24 05:52:26;;;;;;;;;;;;;;;;;;531090;266;65353;-72
2022/08/24 05:54:57;;;;;;;;;;;;;;;23.90;81.55;96873.33;531190;264;65325;-73
2022/08/24 05:57:25;;;;;;;;;;;;;;;23.90;81.55;96867.97;531261;266;68847;-71
2022/08/24 05:59:55;;;;;;;;;;;;;;;23.90;81.51;96870.64;530436;267;41981;-70
2022/08/24 06:02:22;;;;;;;;;;;;;;;;;;529492;265;68806;-70
2022/08/24 06:04:50;;;;;;;;;;;;;;;23.88;81.44;96878.98;528579;268;66603;-72
2022/08/24 06:07:19;;;;;;;;;;;;;;;23.90;81.46;96870.64;528457;268;62389;-72
2022/08/24 06:09:49;;;;;;;;;;;;;;;23.89;81.45;96877.08;528475;268;47186;-67
2022/08/24 06:12:16;;;;;;;;;;;;;;;23.88;81.33;96875.50;528558;268;69803;-67
2022/08/24 06:14:47;;;;;;;;;;;;;;;23.87;80.58;96877.39;531490;264;65022;-67
2022/08/24 06:17:16;;;;;;;;;;;;;;;23.88;80.24;96878.19;535373;264;45721;-67
2022/08/24 06:19:43;;;;;;;;;;;;;;;23.88;80.42;96875.50;535154;265;66786;-68
2022/08/24 06:22:11;;;;;;;;;;;;;;;23.89;80.82;96874.41;535146;264;65142;-67
2022/08/24 06:27:25;;;;;;;;;;;;;;;;;;535506;264;68914;-68
2022/08/24 06:29:57;;;;;;;;;;;;;;;23.89;80.75;96875.19;535160;264;62833;-67
2022/08/24 06:32:30;;;;;;;;;;;;;;;23.91;80.68;96880.28;530081;263;50251;-67
2022/08/24 06:34:58;;;;;;;;;;;;;;;23.90;80.66;96881.38;535330;264;69477;-68
2022/08/24 06:37:26;;;;;;;;;;;;;;;23.90;80.57;96884.06;535024;264;66203;-63
2022/08/24 06:39:54;;;;;;;;;;;;;;;23.91;80.54;96880.28;535161;264;66863;-64
2022/08/24 06:42:28;;;;;;;;;;;;;;;23.92;80.49;96884.55;535189;264;69334;-65
2022/08/24 06:44:57;;;;;;;;;;;;;;;23.91;80.43;96882.97;535064;264;46497;-67
2022/08/24 06:47:25;;;;;;;;;;;;;;;23.92;80.42;96881.86;535073;265;69705;-64
2022/08/24 06:49:54;;;;;;;;;;;;;;;23.92;80.35;96871.13;534919;264;44965;-64
2022/08/24 06:52:21;;;;;;;;;;;;;;;23.93;80.37;96880.80;535446;264;63118;-64
2022/08/24 06:54:49;;;;;;;;;;;;;;;23.92;80.31;96873.81;535258;264;68930;-64
2022/08/24 06:57:17;;;;;;;;;;;;;;;23.93;80.24;96876.22;535842;264;68585;-64
2022/08/24 06:59:45;;;;;;;;;;;;;;;23.93;80.23;96878.11;536114;264;65051;-64
2022/08/24 07:02:14;;;;;;;;;;;;;;;23.93;80.17;96873.53;534996;264;66289;-69
2022/08/24 07:04:42;;;;;;;;;;;;;;;23.95;80.14;96883.95;535903;264;67757;-71
2022/08/24 07:07:28;;;;;;;;;;;;;;;23.95;78.90;96883.95;536449;264;39330;-68
2022/08/24 07:09:56;;;;;;;;;;;;;;;23.92;77.15;96888.02;535740;264;66354;-70
2022/08/24 07:12:25;;;;;;;;;;;;;;;23.95;78.74;96893.91;536224;264;68781;-71
2022/08/24 07:14:54;;;;;;;;;;;;;;;23.95;79.12;96891.22;533109;264;63810;-73
2022/08/24 07:17:22;;;;;;;;;;;;;;;23.94;79.07;96890.43;531239;264;66663;-71
2022/08/24 07:19:50;;;;;;;;;;;;;;;23.94;79.20;96898.48;531218;264;68530;-71
2022/08/24 07:22:19;;;;;;;;;;;;;;;23.95;79.25;96902.75;530720;266;42777;-71
2022/08/24 07:24:46;;;;;;;;;;;;;;;23.94;79.26;96906.53;531212;264;65939;-72
2022/08/24 07:27:14;;;;;;;;;;;;;;;23.94;79.20;96906.53;531188;266;68352;-73
2022/08/24 07:29:42;;;;;;;;;;;;;;;23.94;79.19;96906.53;531300;264;62695;-70
2022/08/24 07:32:09;;;;;;;;;;;;;;;23.94;79.08;96911.90;531231;266;68770;-69
2022/08/24 07:34:38;;;;;;;;;;;;;;;23.95;79.04;96904.64;531491;264;45930;-70
2022/08/24 07:37:06;;;;;;;;;;;;;;;23.94;78.98;96911.90;531020;266;65801;-69
2022/08/24 07:39:35;;;;;;;;;;;;;;;23.94;78.98;96911.90;531574;266;68982;-70
2022/08/24 07:42:03;;;;;;;;;;;;;;;23.94;78.99;96909.22;531445;266;66254;-70
2022/08/24 07:44:31;;;;;;;;;;;;;;;23.94;78.88;96909.22;531669;264;65949;-70
2022/08/24 07:46:58;;;;;;;;;;;;;;;23.94;78.85;96911.90;531434;264;68770;-71
2022/08/24 07:49:26;;;;;;;;;;;;;;;23.95;78.06;96910.00;531664;266;68571;-70
2022/08/24 07:51:54;;;;;;;;;;;;;;;23.96;78.88;96906.25;531390;266;62515;-70
2022/08/24 07:54:21;;;;;;;;;;;;;;;23.96;79.11;96906.25;531272;266;68702;-70
2022/08/24 07:56:49;;;;;;;;;;;;;;;23.96;79.43;96914.30;531200;266;66122;-70
2022/08/24 07:59:17;;;;;;;;;;;;;;;23.95;79.71;96916.17;531256;266;65692;-70
2022/08/24 08:01:45;;;;;;;;;;;;;;;23.96;79.82;96920.47;531159;264;69351;-70
2022/08/24 08:04:14;;;;;;;;;;;;;;;23.96;79.92;96925.04;531441;266;68773;-70
2022/08/24 08:06:42;;;;;;;;;;;;;;;23.95;80.01;96929.59;531536;266;66458;-72
2022/08/24 08:09:09;;;;;;;;;;;;;;;23.96;80.05;96930.41;531491;266;66793;-70
2022/08/24 08:11:37;;;;;;;;;;;;;;;23.95;80.19;96932.27;531551;266;66318;-69
2022/08/24 08:14:04;;;;;;;;;;;;;;;23.96;80.27;96941.14;531677;265;64968;-69
2022/08/24 08:16:32;;;;;;;;;;;;;;;23.97;80.26;96942.73;533713;265;68721;-71
2022/08/24 08:19:00;;;;;;;;;;;;;;;23.94;77.75;96938.73;533820;265;66637;-73
2022/08/24 08:24:21;;;;;;;;;;;;;;;23.96;79.28;96943.83;533810;265;68954;-69
2022/08/24 08:26:51;;;;;;;;;;;;;;;23.95;78.98;96939.53;533671;265;45269;-70
2022/08/24 08:29:26;;;;;;;;;;;;;;;23.95;78.85;96942.22;533802;265;42545;-70
2022/08/24 08:31:54;;;;;;;;;;;;;;;23.94;78.65;96944.11;533855;265;68833;-70
2022/08/24 08:34:22;;;;;;;;;;;;;;;23.94;78.60;96941.42;533855;265;66492;-70
2022/08/24 08:36:50;;;;;;;;;;;;;;;23.94;78.53;96938.73;533753;265;65016;-70
2022/08/24 08:39:20;;;;;;;;;;;;;;;23.94;78.43;96938.73;533881;265;66558;-73
2022/08/24 08:42:05;;;;;;;;;;;;;;;23.93;78.33;96937.16;533810;265;67774;-67
2022/08/24 08:44:36;;;;;;;;;;;;;;;23.94;78.27;96936.05;533740;265;43698;-69
2022/08/24 08:47:12;;;;;;;;;;;;;;;23.93;78.19;96931.79;533747;265;66946;-69
2022/08/24 08:49:51;;;;;;;;;;;;;;;23.93;78.05;96937.95;533802;265;68768;-72
2022/08/24 08:52:25;;;;;;;;;;;;;;;23.93;77.99;96943.31;533642;265;63004;-67
2022/08/24 08:55:07;;;;;;;;;;;;;;;23.93;77.90;96942.52;533753;265;66553;-67
2022/08/24 08:57:39;;;;;;;;;;;;;;;23.92;78.02;96936.33;533810;264;66250;-67
2022/08/24 09:00:11;;;;;;;;;;;;;;;23.92;77.99;96936.33;533818;265;63030;-68
2022/08/24 09:02:56;;;;;;;;;;;;;;;23.92;77.88;96927.49;533755;265;68932;-68
2022/08/24 09:05:26;;;;;;;;;;;;;;;23.92;77.83;96927.49;533769;265;68739;-67
2022/08/24 09:07:58;;;;;;;;;;;;;;;23.92;77.87;96935.55;533830;264;66007;-66
2022/08/24 09:10:28;;;;;;;;;;;;;;;23.92;77.85;96940.91;533796;265;66293;-66
2022/08/24 09:12:57;;;;;;;;;;;;;;;23.93;77.86;96942.52;533798;264;68766;-67
2022/08/24 09:15:29;;;;;;;;;;;;;;;23.91;77.84;96937.44;533545;265;64974;-68
2022/08/24 09:18:15;;;;;;;;;;;;;;;23.91;77.82;96939.33;533397;265;66471;-68
2022/08/24 09:20:56;;;;;;;;;;;;;;;23.92;77.72;96924.80;533672;265;68857;-67
2022/08/24 09:23:31;;;;;;;;;;;;;;;23.91;77.83;96921.33;533839;265;65295;-67
2022/08/24 09:26:17;;;;;;;;;;;;;;;23.92;77.76;96922.13;530285;265;69004;-68
2022/08/24 09:28:46;;;;;;;;;;;;;;;23.91;77.74;96923.22;528051;267;67224;-70
2022/08/24 09:31:18;;;;;;;;;;;;;;;23.89;74.50;96923.50;528580;267;65234;-70
2022/08/24 09:33:50;;;;;;;;;;;;;;;23.92;76.50;96928.28;528623;267;68790;-70
2022/08/24 09:36:25;;;;;;;;;;;;;;;23.93;77.18;96926.42;528312;267;66812;-67
2022/08/24 09:39:06;;;;;;;;;;;;;;;23.92;77.34;96927.49;528060;267;62943;-68
2022/08/24 09:41:39;;;;;;;;;;;;;;;23.92;77.52;96924.80;528381;268;68768;-68
2022/08/24 09:44:24;;;;;;;;;;;;;;;23.92;77.59;96927.49;528634;267;66775;-67
2022/08/24 09:46:59;;;;;;;;;;;;;;;23.92;77.48;96930.17;528574;267;63838;-67
2022/08/24 09:49:29;;;;;;;;;;;;;;;23.92;77.49;96924.80;528322;268;66568;-67
2022/08/24 09:52:04;;;;;;;;;;;;;;;23.92;77.52;96919.44;527873;268;68633;-68
2022/08/24 09:54:39;;;;;;;;;;;;;;;23.91;77.54;96921.33;528180;267;65436;-67
2022/08/24 09:57:08;;;;;;;;;;;;;;;23.91;77.54;96924.02;528318;267;68615;-67
2022/08/24 09:59:49;;;;;;;;;;;;;;;23.91;77.61;96912.48;528262;267;66986;-67
2022/08/24 10:02:22;;;;;;;;;;;;;;;23.91;77.62;96907.12;528508;267;65359;-67
2022/08/24 10:04:57;;;;;;;;;;;;;;;23.91;77.49;96915.96;527985;267;68991;-68
2022/08/24 10:07:38;;;;;;;;;;;;;;;23.91;77.51;96915.96;528678;268;66564;-68
2022/08/24 10:10:24;;;;;;;;;;;;;;;23.91;77.51;96907.91;528204;267;65399;-67
2022/08/24 10:13:11;;;;;;;;;;;;;;;23.92;77.61;96912.18;528701;267;68622;-67
2022/08/24 10:15:40;;;;;;;;;;;;;;;23.91;77.66;96907.91;530455;264;68971;-70
2022/08/24 10:18:09;;;;;;;;;;;;;;;23.91;77.57;96907.12;531102;266;63813;-69
2022/08/24 10:20:41;;;;;;;;;;;;;;;23.91;77.63;96902.55;530890;267;69053;-66
2022/08/24 10:23:19;;;;;;;;;;;;;;;23.89;76.74;96895.88;530814;266;66551;-66
2022/08/24 10:25:54;;;;;;;;;;;;;;;23.91;77.41;96896.38;531060;267;65461;-67
2022/08/24 10:28:40;;;;;;;;;;;;;;;23.91;78.05;96891.81;531124;266;69264;-66
2022/08/24 10:31:09;;;;;;;;;;;;;;;23.91;78.16;96896.38;531237;266;69090;-69
2022/08/24 10:33:55;;;;;;;;;;;;;;;23.92;78.36;96904.13;530593;266;63059;-69
2022/08/24 10:36:42;;;;;;;;;;;;;;;23.91;78.54;96891.81;531049;266;68825;-67
2022/08/24 10:42:04;;;;;;;;;;;;;;;23.92;78.86;96889.91;531028;264;63232;-68
2022/08/24 10:44:49;;;;;;;;;;;;;;;23.91;79.04;96883.75;530960;266;69101;-69
2022/08/24 10:47:29;;;;;;;;;;;;;;;23.92;79.12;96893.39;531062;266;69375;-69
2022/08/24 10:50:01;;;;;;;;;;;;;;;23.92;79.12;96892.59;531025;263;63774;-68
2022/08/24 10:52:33;;;;;;;;;;;;;;;23.92;79.23;96900.65;530728;266;68839;-68
2022/08/24 10:55:09;;;;;;;;;;;;;;;23.92;79.23;96901.44;530441;264;69058;-67
2022/08/24 10:57:41;;;;;;;;;;;;;;;23.92;79.39;96888.02;531050;267;65332;-68
2022/08/24 11:00:18;;;;;;;;;;;;;;;23.92;79.42;96881.86;530963;266;68930;-68
2022/08/24 11:02:46;;;;;;;;;;;;;;;23.93;79.47;96878.11;531105;266;68831;-67
2022/08/24 11:05:16;;;;;;;;;;;;;;;23.92;79.53;96877.28;531103;264;65053;-68
2022/08/24 11:08:03;;;;;;;;;;;;;;;23.93;78.32;96873.53;530420;267;67523;-72
2022/08/24 11:10:32;;;;;;;;;;;;;;;23.94;78.66;96868.95;531113;266;68684;-73
2022/08/24 11:13:20;;;;;;;;;;;;;;;23.93;78.93;96865.48;530255;266;66207;-70
2022/08/24 11:15:50;;;;;;;;;;;;;;;23.93;78.73;96868.16;525448;268;68472;-71
2022/08/24 11:18:18;;;;;;;;;;;;;;;23.92;78.52;96853.13;525881;269;66483;-68
2022/08/24 11:20:47;;;;;;;;;;;;;;;23.92;78.17;96849.66;525826;269;66330;-70
2022/08/24 11:23:20;;;;;;;;;;;;;;;23.93;78.14;96845.91;526585;264;66786;-70
2022/08/24 11:25:49;;;;;;;;;;;;;;;23.92;77.92;96844.29;530975;264;68600;-68
2022/08/24 11:28:24;;;;;;;;;;;;;;;23.91;77.80;96838.13;529740;267;63174;-68
2022/08/24 11:30:52;;;;;;;;;;;;;;;23.92;77.70;96838.92;531050;264;66442;-68
2022/08/24 11:33:26;;;;;;;;;;;;;;;23.92;77.69;96844.29;530964;264;66578;-69
2022/08/24 11:35:54;;;;;;;;;;;;;;;23.92;77.71;96839.71;530309;264;62756;-69
2022/08/24 11:38:30;;;;;;;;;;;;;;;23.93;77.67;96849.38;530890;264;69400;-66
2022/08/24 11:40:55;;;;;;;;;;;;;;;23.91;77.61;96843.50;530902;266;66265;-72
2022/08/24 11:43:30;;;;;;;;;;;;;;;23.93;77.40;96856.64;530852;266;65443;-70
2022/08/24 11:46:02;;;;;;;;;;;;;;;23.92;76.83;96865.76;531000;264;68418;-71
2022/08/24 11:48:41;;;;;;;;;;;;;;;23.92;76.48;96865.76;530140;264;66419;-70
2022/08/24 11:51:10;;;;;;;;;;;;;;;23.92;76.39;96871.92;531347;264;65264;-71
2022/08/24 11:53:55;;;;;;;;;;;;;;;23.93;76.31;96875.42;531294;264;68579;-69
2022/08/24 11:56:25;;;;;;;;;;;;;;;23.92;76.29;96871.13;531364;264;66318;-66
2022/08/24 11:58:54;;;;;;;;;;;;;;;23.91;76.34;96870.34;529769;267;62830;-67
2022/08/24 12:01:26;;;;;;;;;;;;;;;23.91;76.43;96878.39;531009;267;68457;-66
2022/08/24 12:04:07;;;;;;;;;;;;;;;23.92;76.47;96881.86;531225;264;66347;-67
2022/08/24 12:06:36;;;;;;;;;;;;;;;23.91;76.48;96874.91;531236;264;62921;-67
2022/08/24 12:09:05;;;;;;;;;;;;;;;23.91;76.55;96869.55;531249;264;69048;-67
2022/08/24 12:11:40;;;;;;;;;;;;;;;23.92;76.47;96868.45;531333;264;69096;-69
2022/08/24 12:14:07;;;;;;;;;;;;;;;;;;531949;264;65178;-67
2022/08/24 12:16:48;;;;;;;;;;;;;;;23.92;74.25;96855.02;535740;264;67723;-67
2022/08/24 12:19:19;;;;;;;;;;;;;;;23.93;76.24;96845.91;535718;264;68603;-67
2022/08/24 12:21:49;;;;;;;;;;;;;;;23.92;76.53;96847.77;535770;264;65849;-67
2022/08/24 12:24:18;;;;;;;;;;;;;;;23.92;77.01;96847.77;535423;264;64593;-68
2022/08/24 12:26:47;;;;;;;;;;;;;;;23.93;77.01;96845.91;534898;264;69796;-67
2022/08/24 12:29:16;;;;;;;;;;;;;;;23.91;77.15;96840.02;535522;264;61635;-68
2022/08/24 12:31:46;;;;;;;;;;;;;;;23.92;77.21;96850.45;535508;264;68913;-70
2022/08/24 12:34:15;;;;;;;;;;;;;;;23.92;77.32;96842.39;535998;264;68620;-69
2022/08/24 12:36:52;;;;;;;;;;;;;;;23.92;77.31;96841.61;535593;264;65164;-69
2022/08/24 12:39:21;;;;;;;;;;;;;;;23.91;77.43;96864.97;535612;264;67707;-69
2022/08/24 12:41:51;;;;;;;;;;;;;;;23.92;77.48;96865.76;535692;264;66618;-69
2022/08/24 12:44:20;;;;;;;;;;;;;;;23.93;77.57;96867.38;535797;264;62872;-69
2022/08/24 12:46:49;;;;;;;;;;;;;;;23.92;77.71;96871.13;535781;264;68679;-69
2022/08/24 12:49:21;;;;;;;;;;;;;;;23.92;77.66;96855.02;535778;264;66719;-68
2022/08/24 12:52:06;;;;;;;;;;;;;;;23.93;77.79;96856.64;535589;264;62203;-69
2022/08/24 12:54:52;;;;;;;;;;;;;;;23.92;77.71;96855.81;535714;264;69713;-68
2022/08/24 12:57:34;;;;;;;;;;;;;;;23.91;77.82;96854.23;535703;264;68868;-69
2022/08/24 13:00:05;;;;;;;;;;;;;;;23.92;77.93;96849.66;535586;264;62858;-68
2022/08/24 13:02:40;;;;;;;;;;;;;;;23.92;77.91;96861.19;535650;264;73774;-69
2022/08/24 13:05:14;;;;;;;;;;;;;;;23.92;78.00;96863.08;535271;264;67302;-69
2022/08/24 13:07:44;;;;;;;;;;;;;;;23.92;77.95;96861.19;535501;264;65818;-69
2022/08/24 13:10:16;;;;;;;;;;;;;;;23.92;78.09;96860.39;535827;264;68787;-68
2022/08/24 13:12:45;;;;;;;;;;;;;;;23.92;78.19;96855.81;532584;264;66554;-68
2022/08/24 13:15:20;;;;;;;;;;;;;;;23.92;78.13;96860.39;532797;262;65186;-69
2022/08/24 13:17:49;;;;;;;;;;;;;;;23.91;78.20;96853.44;531297;264;68762;-67
2022/08/24 13:20:22;;;;;;;;;;;;;;;23.92;78.19;96865.76;531046;267;68418;-70